createdAt,value
2022-11-17T00:00:24.296Z,3.35
2022-11-17T00:02:52.286Z,1.90
2022-11-17T00:05:20.318Z,2.08
2022-11-17T00:07:49.975Z,2.20
2022-11-17T00:10:18.819Z,2.00
2022-11-17T00:13:04.465Z,2.00
2022-11-17T00:15:33.954Z,2.05
2022-11-17T00:18:19.240Z,2.88
2022-11-17T00:21:04.609Z,2.00
2022-11-17T00:23:46.440Z,2.03
2022-11-17T00:26:15.805Z,2.10
2022-11-17T00:28:44.001Z,1.98
2022-11-17T00:31:32.080Z,2.08
2022-11-17T00:34:05.751Z,2.17
2022-11-17T00:36:35.814Z,2.00
2022-11-17T00:39:04.764Z,2.00
2022-11-17T00:41:32.793Z,2.20
2022-11-17T00:44:00.741Z,2.08
2022-11-17T00:46:30.088Z,2.03
2022-11-17T00:48:58.186Z,2.17
2022-11-17T00:51:26.240Z,2.13
2022-11-17T00:53:54.419Z,1.92
2022-11-17T00:56:22.557Z,1.98
2022-11-17T00:58:50.748Z,1.90
2022-11-17T01:01:19.118Z,2.15
2022-11-17T01:03:48.792Z,2.10
2022-11-17T01:06:19.041Z,2.50
2022-11-17T01:08:49.345Z,2.35
2022-11-17T01:11:19.101Z,2.10
2022-11-17T01:13:48.739Z,2.03
2022-11-17T01:16:18.901Z,2.17
2022-11-17T01:18:51.517Z,2.10
2022-11-17T01:21:22.396Z,2.00
2022-11-17T01:23:53.277Z,1.80
2022-11-17T01:26:23.389Z,1.63
2022-11-17T01:28:52.172Z,2.15
2022-11-17T01:31:22.288Z,2.03
2022-11-17T01:33:52.126Z,1.95
2022-11-17T01:36:22.479Z,1.73
2022-11-17T01:38:50.925Z,1.80
2022-11-17T01:41:21.052Z,2.30
2022-11-17T01:43:50.625Z,2.00
2022-11-17T01:46:30.561Z,2.10
2022-11-17T01:49:07.675Z,2.00
2022-11-17T01:51:41.096Z,2.33
2022-11-17T01:54:11.631Z,2.30
2022-11-17T01:56:45.094Z,2.30
2022-11-17T01:59:20.562Z,2.35
2022-11-17T02:01:56.505Z,2.30
2022-11-17T02:04:28.856Z,2.20
2022-11-17T02:07:02.381Z,2.50
2022-11-17T02:09:30.464Z,2.60
2022-11-17T02:11:59.829Z,2.50
2022-11-17T02:14:27.808Z,2.40
2022-11-17T02:16:55.742Z,2.05
2022-11-17T02:19:29.333Z,2.45
2022-11-17T02:22:23.830Z,2.58
2022-11-17T02:25:17.036Z,2.63
2022-11-17T02:28:07.677Z,2.63
2022-11-17T02:30:40.996Z,2.50
2022-11-17T02:33:17.665Z,2.22
2022-11-17T02:35:51.037Z,2.25
2022-11-17T02:38:28.025Z,2.10
2022-11-17T02:41:04.242Z,2.20
2022-11-17T02:43:55.456Z,2.10
2022-11-17T02:46:25.653Z,1.92
2022-11-17T02:48:58.488Z,2.33
2022-11-17T02:51:26.931Z,2.10
2022-11-17T02:53:57.319Z,2.00
2022-11-17T02:56:25.315Z,2.50
2022-11-17T02:58:58.588Z,2.30
2022-11-17T03:01:55.775Z,2.08
2022-11-17T03:04:43.957Z,2.40
2022-11-17T03:07:25.215Z,2.40
2022-11-17T03:10:02.308Z,2.30
2022-11-17T03:12:37.566Z,2.42
2022-11-17T03:15:14.664Z,2.40
2022-11-17T03:17:53.647Z,2.30
2022-11-17T03:20:25.752Z,2.45
2022-11-17T03:22:58.358Z,2.50
2022-11-17T03:25:28.354Z,2.35
2022-11-17T03:28:00.506Z,2.05
2022-11-17T03:30:34.712Z,1.60
2022-11-17T03:33:11.257Z,1.70
2022-11-17T03:35:46.308Z,1.73
2022-11-17T03:38:19.723Z,2.35
2022-11-17T03:40:51.873Z,2.10
2022-11-17T03:43:22.330Z,1.83
2022-11-17T03:45:54.881Z,2.28
2022-11-17T03:48:27.853Z,2.53
2022-11-17T03:51:00.257Z,2.22
2022-11-17T03:53:28.466Z,2.70
2022-11-17T03:56:03.807Z,2.72
2022-11-17T03:58:36.140Z,2.33
2022-11-17T04:01:06.962Z,2.63
2022-11-17T04:03:36.254Z,2.58
2022-11-17T04:06:04.557Z,2.45
2022-11-17T04:08:32.525Z,3.08
2022-11-17T04:11:17.813Z,3.10
2022-11-17T04:14:03.064Z,2.42
2022-11-17T04:16:32.561Z,2.50
2022-11-17T04:19:00.476Z,3.03
2022-11-17T04:21:29.651Z,2.60
2022-11-17T04:23:57.923Z,2.90
2022-11-17T04:26:44.230Z,2.55
2022-11-17T04:29:12.131Z,3.20
2022-11-17T04:31:41.495Z,2.60
2022-11-17T04:34:09.361Z,2.90
2022-11-17T04:36:40.694Z,2.50
2022-11-17T04:39:08.676Z,2.40
2022-11-17T04:41:54.097Z,2.60
2022-11-17T04:44:24.002Z,2.50
2022-11-17T04:46:54.285Z,2.60
2022-11-17T04:49:23.197Z,2.47
2022-11-17T04:51:51.838Z,2.63
2022-11-17T04:54:21.817Z,2.45
2022-11-17T04:56:49.705Z,2.00
2022-11-17T04:59:19.061Z,2.17
2022-11-17T05:01:47.538Z,2.03
2022-11-17T05:04:39.246Z,2.05
2022-11-17T05:07:07.930Z,1.90
2022-11-17T05:09:35.941Z,2.05
2022-11-17T05:12:21.416Z,2.08
2022-11-17T05:14:50.499Z,1.92
2022-11-17T05:17:18.052Z,1.70
2022-11-17T05:19:48.818Z,1.67
2022-11-17T05:22:36.889Z,1.80
2022-11-17T05:25:06.467Z,1.80
2022-11-17T05:27:35.302Z,1.88
2022-11-17T05:30:03.571Z,1.60
2022-11-17T05:32:31.517Z,1.80
2022-11-17T05:35:02.120Z,1.35
2022-11-17T05:37:30.080Z,1.42
2022-11-17T05:39:58.000Z,1.55
2022-11-17T05:42:25.937Z,1.50
2022-11-17T05:44:53.826Z,1.23
2022-11-17T05:47:21.747Z,1.30
2022-11-17T05:49:49.687Z,0.90
2022-11-17T05:52:19.054Z,1.00
2022-11-17T05:54:46.968Z,1.27
2022-11-17T05:57:17.892Z,1.20
2022-11-17T05:59:49.633Z,1.27
2022-11-17T06:02:22.122Z,1.40
2022-11-17T06:04:50.530Z,1.40
2022-11-17T06:07:21.279Z,1.60
2022-11-17T06:09:49.369Z,1.35
2022-11-17T06:12:17.301Z,1.48
2022-11-17T06:14:45.263Z,1.60
2022-11-17T06:17:22.767Z,1.73
2022-11-17T06:19:56.877Z,1.67
2022-11-17T06:22:27.849Z,1.70
2022-11-17T06:24:56.381Z,1.70
2022-11-17T06:27:25.519Z,1.83
2022-11-17T06:29:54.320Z,1.90
2022-11-17T06:32:22.626Z,2.20
2022-11-17T06:34:56.043Z,1.90
2022-11-17T06:37:26.216Z,1.95
2022-11-17T06:39:54.179Z,1.98
2022-11-17T06:42:42.855Z,1.88
2022-11-17T06:45:11.887Z,1.95
2022-11-17T06:47:39.992Z,2.00
2022-11-17T06:50:09.475Z,1.85
2022-11-17T06:52:38.933Z,1.95
2022-11-17T06:55:08.130Z,2.00
2022-11-17T06:57:36.075Z,1.73
2022-11-17T07:00:06.088Z,1.98
2022-11-17T07:02:34.414Z,2.05
2022-11-17T07:05:02.460Z,2.13
2022-11-17T07:07:30.540Z,2.50
2022-11-17T07:10:00.047Z,2.50
2022-11-17T07:12:28.104Z,1.98
2022-11-17T07:14:56.152Z,1.95
2022-11-17T07:17:24.231Z,2.25
2022-11-17T07:19:53.594Z,2.10
2022-11-17T07:22:21.943Z,1.70
2022-11-17T07:24:49.927Z,1.90
2022-11-17T07:27:19.271Z,1.90
2022-11-17T07:29:47.339Z,1.95
2022-11-17T07:32:15.422Z,1.92
2022-11-17T07:34:44.600Z,2.78
2022-11-17T07:37:12.675Z,1.60
2022-11-17T07:39:40.693Z,1.55
2022-11-17T07:42:09.056Z,1.50
2022-11-17T07:44:38.426Z,1.20
2022-11-17T07:47:06.472Z,1.00
2022-11-17T07:49:34.555Z,1.48
2022-11-17T07:52:02.554Z,1.20
2022-11-17T07:54:30.541Z,0.93
2022-11-17T07:56:58.715Z,1.10
2022-11-17T07:59:26.705Z,0.90
2022-11-17T08:01:56.153Z,1.00
2022-11-17T08:04:24.170Z,1.00
2022-11-17T08:06:52.281Z,0.90
2022-11-17T08:09:20.348Z,1.00
2022-11-17T08:11:48.431Z,0.70
2022-11-17T08:14:16.586Z,0.70
2022-11-17T08:16:44.607Z,0.68
2022-11-17T08:19:14.586Z,0.73
2022-11-17T08:21:42.636Z,0.65
2022-11-17T08:24:12.896Z,0.70
2022-11-17T08:26:41.209Z,0.70
2022-11-17T08:29:09.342Z,0.80
2022-11-17T08:31:37.396Z,0.52
2022-11-17T08:34:05.491Z,0.70
2022-11-17T08:36:34.848Z,0.93
2022-11-17T08:39:03.020Z,0.60
2022-11-17T08:41:31.850Z,0.60
2022-11-17T08:43:59.931Z,0.65
2022-11-17T08:46:27.936Z,0.88
2022-11-17T08:48:57.224Z,0.60
2022-11-17T08:51:27.269Z,0.60
2022-11-17T08:53:56.905Z,0.70
2022-11-17T08:56:25.024Z,0.80
2022-11-17T08:58:53.098Z,0.80
2022-11-17T09:01:21.299Z,0.77
2022-11-17T09:03:49.854Z,0.70
2022-11-17T09:06:20.092Z,0.55
2022-11-17T09:08:48.830Z,0.60
2022-11-17T09:11:18.399Z,0.70
2022-11-17T09:13:47.064Z,0.70
2022-11-17T09:16:16.665Z,0.50
2022-11-17T09:18:45.522Z,0.70
2022-11-17T09:21:15.224Z,0.90
2022-11-17T09:23:44.048Z,0.60
2022-11-17T09:26:14.519Z,0.80
2022-11-17T09:28:44.352Z,0.50
2022-11-17T09:31:14.404Z,0.60
2022-11-17T09:33:42.824Z,0.63
2022-11-17T09:36:11.945Z,0.50
2022-11-17T09:38:41.106Z,1.17
2022-11-17T09:41:23.218Z,0.40
2022-11-17T09:44:00.367Z,0.60
2022-11-17T09:46:34.718Z,0.30
2022-11-17T09:49:09.019Z,0.40
2022-11-17T09:51:39.818Z,1.00
2022-11-17T09:54:15.445Z,0.50
2022-11-17T09:56:44.616Z,0.43
2022-11-17T09:59:19.322Z,1.00
2022-11-17T10:01:47.399Z,0.47
2022-11-17T10:04:18.648Z,0.55
2022-11-17T10:06:50.229Z,0.60
2022-11-17T10:09:25.956Z,0.40
2022-11-17T10:12:02.922Z,0.60
2022-11-17T10:14:41.920Z,0.88
2022-11-17T10:17:10.891Z,0.73
2022-11-17T10:19:39.750Z,0.70
2022-11-17T10:22:30.038Z,0.82
2022-11-17T10:24:58.786Z,0.63
2022-11-17T10:27:28.880Z,0.88
2022-11-17T10:30:04.621Z,0.80
2022-11-17T10:32:35.341Z,1.20
2022-11-17T10:35:16.036Z,0.95
2022-11-17T10:37:52.708Z,1.25
2022-11-17T10:40:25.770Z,1.20
2022-11-17T10:43:18.990Z,1.17
2022-11-17T10:45:50.100Z,1.60
2022-11-17T10:48:25.444Z,1.50
2022-11-17T10:50:55.793Z,0.70
2022-11-17T10:53:31.359Z,1.27
2022-11-17T10:56:05.977Z,1.23
2022-11-17T10:58:56.094Z,0.80
2022-11-17T11:01:32.318Z,1.13
2022-11-17T11:04:00.702Z,1.67
2022-11-17T11:06:29.817Z,1.83
2022-11-17T11:09:01.573Z,1.17
2022-11-17T11:11:37.890Z,1.30
2022-11-17T11:14:14.382Z,1.98
2022-11-17T11:16:48.378Z,1.40
2022-11-17T11:19:18.680Z,1.05
2022-11-17T11:22:01.260Z,1.42
2022-11-17T11:24:37.720Z,1.58
2022-11-17T11:27:21.944Z,5.55
2022-11-17T11:29:59.561Z,2.13
2022-11-17T11:32:39.742Z,4.88
2022-11-17T11:35:52.751Z,7.45
2022-11-17T11:38:39.058Z,1.60
2022-11-17T11:41:20.372Z,4.38
2022-11-17T11:44:00.303Z,1.45
2022-11-17T11:46:40.588Z,1.85
2022-11-17T11:49:19.411Z,1.75
2022-11-17T11:51:50.324Z,2.80
2022-11-17T11:54:28.295Z,1.85
2022-11-17T11:56:56.652Z,4.50
2022-11-17T11:59:37.647Z,2.03
2022-11-17T12:02:21.655Z,2.13
2022-11-17T12:05:00.882Z,6.20
2022-11-17T12:07:37.569Z,2.40
2022-11-17T12:10:07.877Z,3.20
2022-11-17T12:12:39.647Z,2.65
2022-11-17T12:15:13.877Z,1.80
2022-11-17T12:17:59.339Z,2.97
2022-11-17T12:20:56.950Z,1.67
2022-11-17T12:23:35.511Z,1.77
2022-11-17T12:26:03.920Z,1.67
2022-11-17T12:28:35.706Z,1.63
2022-11-17T12:31:09.820Z,1.48
2022-11-17T12:34:11.517Z,2.00
2022-11-17T12:36:41.099Z,1.67
2022-11-17T12:39:47.572Z,1.88
2022-11-17T12:42:15.585Z,1.80
2022-11-17T12:44:58.678Z,1.65
2022-11-17T12:47:28.650Z,1.77
2022-11-17T12:50:27.328Z,1.60
2022-11-17T12:53:22.321Z,2.17
2022-11-17T12:56:26.981Z,2.78
2022-11-17T12:59:06.190Z,2.15
2022-11-17T13:01:43.141Z,1.83
2022-11-17T13:04:16.375Z,2.10
2022-11-17T13:07:01.149Z,1.58
2022-11-17T13:09:33.417Z,1.75
2022-11-17T13:12:04.181Z,1.65
2022-11-17T13:14:32.801Z,2.30
2022-11-17T13:17:01.576Z,1.90
2022-11-17T13:19:34.357Z,1.92
2022-11-17T13:22:05.556Z,1.92
2022-11-17T13:24:36.892Z,1.80
2022-11-17T13:27:08.411Z,2.17
2022-11-17T13:29:36.751Z,1.83
2022-11-17T13:32:28.475Z,1.85
2022-11-17T13:34:59.902Z,2.00
2022-11-17T13:37:30.516Z,2.28
2022-11-17T13:40:01.976Z,1.75
2022-11-17T13:42:33.440Z,2.10
2022-11-17T13:45:03.765Z,4.22
2022-11-17T13:47:46.632Z,1.98
2022-11-17T13:50:34.175Z,1.95
2022-11-17T13:53:06.355Z,1.83
2022-11-17T13:55:36.471Z,2.20
2022-11-17T13:58:08.876Z,1.73
2022-11-17T14:00:37.281Z,2.90
2022-11-17T14:03:07.212Z,2.10
2022-11-17T14:05:35.546Z,2.22
2022-11-17T14:08:14.441Z,2.35
2022-11-17T14:10:45.756Z,1.95
2022-11-17T14:13:27.552Z,2.15
2022-11-17T14:15:58.375Z,2.47
2022-11-17T14:18:31.781Z,2.10
2022-11-17T14:21:14.924Z,2.08
2022-11-17T14:23:43.837Z,1.80
2022-11-17T14:26:21.630Z,1.60
2022-11-17T14:28:50.740Z,1.63
2022-11-17T14:31:19.106Z,2.05
2022-11-17T14:33:47.391Z,2.05
2022-11-17T14:36:17.012Z,1.95
2022-11-17T14:38:45.864Z,2.05
2022-11-17T14:41:16.099Z,2.00
2022-11-17T14:43:45.790Z,1.70
2022-11-17T14:46:19.898Z,1.58
2022-11-17T14:48:48.219Z,1.70
2022-11-17T14:51:16.294Z,1.38
2022-11-17T14:53:44.811Z,1.75
2022-11-17T14:56:15.259Z,1.52
2022-11-17T14:58:43.182Z,1.42
2022-11-17T15:01:17.086Z,2.10
2022-11-17T15:03:45.485Z,1.85
2022-11-17T15:06:19.308Z,1.92
2022-11-17T15:08:48.034Z,1.42
2022-11-17T15:11:17.661Z,1.70
2022-11-17T15:13:46.014Z,1.58
2022-11-17T15:16:15.325Z,1.50
2022-11-17T15:18:46.103Z,1.80
2022-11-17T15:21:14.844Z,1.60
2022-11-17T15:23:44.406Z,1.63
2022-11-17T15:26:14.689Z,1.77
2022-11-17T15:28:43.278Z,1.77
2022-11-17T15:31:13.633Z,1.58
2022-11-17T15:33:44.115Z,1.98
2022-11-17T15:36:14.286Z,1.60
2022-11-17T15:38:42.774Z,1.55
2022-11-17T15:41:13.385Z,1.63
2022-11-17T15:43:43.059Z,1.25
2022-11-17T15:46:12.443Z,1.33
2022-11-17T15:48:43.400Z,2.80
2022-11-17T15:51:13.028Z,3.00
2022-11-17T15:53:42.247Z,3.95
2022-11-17T15:56:11.713Z,2.17
2022-11-17T15:58:40.720Z,2.53
2022-11-17T16:01:10.904Z,2.20
2022-11-17T16:03:39.438Z,1.60
2022-11-17T16:06:09.480Z,1.77
2022-11-17T16:08:38.086Z,2.00
2022-11-17T16:11:06.898Z,1.42
2022-11-17T16:13:35.323Z,1.55
2022-11-17T16:16:03.449Z,1.52
2022-11-17T16:18:33.244Z,1.95
2022-11-17T16:21:04.874Z,2.40
2022-11-17T16:23:38.717Z,2.22
2022-11-17T16:26:07.031Z,2.85
2022-11-17T16:28:35.080Z,1.95
2022-11-17T16:31:13.572Z,6.78
2022-11-17T16:33:41.836Z,2.97
2022-11-17T16:36:10.507Z,1.70
2022-11-17T16:38:55.121Z,1.40
2022-11-17T16:41:29.523Z,1.67
2022-11-17T16:43:57.945Z,1.80
2022-11-17T16:46:28.775Z,1.90
2022-11-17T16:48:57.588Z,1.42
2022-11-17T16:51:25.814Z,1.40
2022-11-17T16:53:58.651Z,1.45
2022-11-17T16:56:26.866Z,1.50
2022-11-17T16:58:55.217Z,1.48
2022-11-17T17:01:25.528Z,1.50
2022-11-17T17:03:57.220Z,1.60
2022-11-17T17:06:25.766Z,1.92
2022-11-17T17:08:59.556Z,1.60
2022-11-17T17:11:29.308Z,1.80
2022-11-17T17:13:57.511Z,1.95
2022-11-17T17:16:26.136Z,2.10
2022-11-17T17:18:59.424Z,2.60
2022-11-17T17:21:28.844Z,2.45
2022-11-17T17:23:58.829Z,1.92
2022-11-17T17:26:28.765Z,1.98
2022-11-17T17:28:58.689Z,2.00
2022-11-17T17:31:30.117Z,1.98
2022-11-17T17:33:59.849Z,1.85
2022-11-17T17:36:29.133Z,2.25
2022-11-17T17:39:02.705Z,2.00
2022-11-17T17:41:34.277Z,2.00
2022-11-17T17:44:04.301Z,2.28
2022-11-17T17:46:35.046Z,2.50
2022-11-17T17:49:03.179Z,2.40
2022-11-17T17:51:31.739Z,1.98
2022-11-17T17:54:02.168Z,2.65
2022-11-17T17:56:31.331Z,4.10
2022-11-17T17:58:59.806Z,2.55
2022-11-17T18:01:29.368Z,2.45
2022-11-17T18:04:01.535Z,1.63
2022-11-17T18:06:29.748Z,1.60
2022-11-17T18:08:59.816Z,2.10
2022-11-17T18:11:27.820Z,2.42
2022-11-17T18:13:56.011Z,2.10
2022-11-17T18:16:25.700Z,1.65
2022-11-17T18:18:58.565Z,2.00
2022-11-17T18:21:28.601Z,1.95
2022-11-17T18:23:58.397Z,1.40
2022-11-17T18:26:29.448Z,1.58
2022-11-17T18:28:59.590Z,1.73
2022-11-17T18:31:29.527Z,3.22
2022-11-17T18:33:59.516Z,2.50
2022-11-17T18:36:28.885Z,2.35
2022-11-17T18:38:58.519Z,2.92
2022-11-17T18:41:30.732Z,1.60
2022-11-17T18:43:59.091Z,2.13
2022-11-17T18:46:31.275Z,1.40
2022-11-17T18:48:59.717Z,2.90
2022-11-17T18:51:29.228Z,2.20
2022-11-17T18:53:59.066Z,1.55
2022-11-17T18:56:32.118Z,1.40
2022-11-17T18:59:00.359Z,5.03
2022-11-17T19:01:29.605Z,2.05
2022-11-17T19:04:00.184Z,4.05
2022-11-17T19:06:28.412Z,5.25
2022-11-17T19:08:58.648Z,3.00
2022-11-17T19:11:30.784Z,0.90
2022-11-17T19:14:02.157Z,2.00
2022-11-17T19:16:31.817Z,1.20
2022-11-17T19:19:00.532Z,2.10
2022-11-17T19:21:29.628Z,1.30
2022-11-17T19:24:00.344Z,1.33
2022-11-17T19:26:31.425Z,1.33
2022-11-17T19:29:00.955Z,1.90
2022-11-17T19:31:30.071Z,1.85
2022-11-17T19:33:58.832Z,2.08
2022-11-17T19:36:29.317Z,1.63
2022-11-17T19:39:00.752Z,1.50
2022-11-17T19:41:31.804Z,2.13
2022-11-17T19:44:01.819Z,1.08
2022-11-17T19:46:30.653Z,1.10
2022-11-17T19:48:59.181Z,1.10
2022-11-17T19:51:29.246Z,0.70
2022-11-17T19:54:01.815Z,1.10
2022-11-17T19:56:31.863Z,0.98
2022-11-17T19:58:59.984Z,1.10
2022-11-17T20:01:29.485Z,1.42
2022-11-17T20:03:59.026Z,1.48
2022-11-17T20:06:28.763Z,1.20
2022-11-17T20:08:57.374Z,1.55
2022-11-17T20:11:27.404Z,2.92
2022-11-17T20:13:57.229Z,1.83
2022-11-17T20:16:27.591Z,1.20
2022-11-17T20:18:57.710Z,1.10
2022-11-17T20:21:26.502Z,0.70
2022-11-17T20:23:55.201Z,1.33
2022-11-17T20:26:25.547Z,1.80
2022-11-17T20:28:54.110Z,2.00
2022-11-17T20:31:25.243Z,1.35
2022-11-17T20:33:56.320Z,1.00
2022-11-17T20:36:24.811Z,1.33
2022-11-17T20:38:53.526Z,0.90
2022-11-17T20:41:23.237Z,1.50
2022-11-17T20:43:52.276Z,1.98
2022-11-17T20:46:20.676Z,1.92
2022-11-17T20:48:50.597Z,1.83
2022-11-17T20:51:20.086Z,5.85
2022-11-17T20:53:48.532Z,3.80
2022-11-17T20:56:17.726Z,1.30
2022-11-17T20:58:46.245Z,0.90
2022-11-17T21:01:16.510Z,0.50
2022-11-17T21:03:45.358Z,0.57
2022-11-17T21:06:15.301Z,0.70
2022-11-17T21:08:44.903Z,0.43
2022-11-17T21:11:34.903Z,0.55
2022-11-17T21:14:03.407Z,0.50
2022-11-17T21:16:31.683Z,0.50
2022-11-17T21:19:00.100Z,0.60
2022-11-17T21:21:29.656Z,0.50
2022-11-17T21:23:57.765Z,1.00
2022-11-17T21:26:25.964Z,0.80
2022-11-17T21:28:54.371Z,0.60
2022-11-17T21:31:24.828Z,0.70
2022-11-17T21:33:54.813Z,7.03
2022-11-17T21:36:24.118Z,2.60
2022-11-17T21:38:54.185Z,2.60
2022-11-17T21:41:23.990Z,19.17
2022-11-17T21:43:53.457Z,17.38
2022-11-17T21:46:23.029Z,16.17
2022-11-17T21:48:52.115Z,7.32
2022-11-17T21:51:22.424Z,2.40
2022-11-17T21:53:55.480Z,1.33
2022-11-17T21:56:26.604Z,4.07
2022-11-17T21:58:55.794Z,3.45
2022-11-17T22:01:24.058Z,3.05
2022-11-17T22:03:52.507Z,4.22
2022-11-17T22:06:22.925Z,3.17
2022-11-17T22:08:51.396Z,2.60
2022-11-17T22:11:35.259Z,3.70
2022-11-17T22:14:09.386Z,3.17
2022-11-17T22:16:38.887Z,2.42
2022-11-17T22:19:07.959Z,2.67
2022-11-17T22:21:36.610Z,2.00
2022-11-17T22:24:05.001Z,1.80
2022-11-17T22:26:35.973Z,1.90
2022-11-17T22:29:04.024Z,2.00
2022-11-17T22:31:32.243Z,2.33
2022-11-17T22:34:00.887Z,2.00
2022-11-17T22:36:29.041Z,1.40
2022-11-17T22:38:57.145Z,1.52
2022-11-17T22:41:26.292Z,1.48
2022-11-17T22:43:57.683Z,1.70
2022-11-17T22:46:27.346Z,1.60
2022-11-17T22:48:55.894Z,1.25
2022-11-17T22:51:41.593Z,3.13
2022-11-17T22:54:09.855Z,0.90
2022-11-17T22:56:38.009Z,0.60
2022-11-17T22:59:07.521Z,0.40
2022-11-17T23:01:35.562Z,0.70
2022-11-17T23:04:03.684Z,0.60
2022-11-17T23:06:31.660Z,0.50
2022-11-17T23:08:59.724Z,0.50
2022-11-17T23:11:37.627Z,0.30
2022-11-17T23:14:09.920Z,0.40
2022-11-17T23:16:38.541Z,0.38
2022-11-17T23:19:09.436Z,0.38
2022-11-17T23:21:37.478Z,0.28
2022-11-17T23:24:05.993Z,0.20
2022-11-17T23:26:34.022Z,0.10
2022-11-17T23:29:02.051Z,0.30
2022-11-17T23:31:31.449Z,0.20
2022-11-17T23:33:59.491Z,0.22
2022-11-17T23:36:27.612Z,0.35
2022-11-17T23:38:57.542Z,0.20
2022-11-17T23:41:25.633Z,0.32
2022-11-17T23:43:54.772Z,0.30
2022-11-17T23:46:24.861Z,0.20
2022-11-17T23:48:56.174Z,0.20
2022-11-17T23:51:26.013Z,0.28
2022-11-17T23:53:54.854Z,0.30
2022-11-17T23:56:23.418Z,0.13
2022-11-17T23:58:52.184Z,0.20
